Terminal Aerodrome Forecast
Issued by NWS

Home | Current Version | Previous Version | Graphics & Text | Print | Product List | Glossary On
Versions: 1 2 3 4 5 6 7 8 9 10 11 12 13 14 15 16 17 18 19 20 21
000
FTUS43 KMPX 280600 AAA
TAFAXN
TAF AMD
KAXN 280643Z 2807/2906 13010KT 3SM -SN BR SCT006 OVC035
     FM280730 13009KT P6SM OVC040
     FM281100 13009KT 5SM -FZDZSN BR OVC009
     FM281500 12007KT 6SM BR OVC015
     FM290000 13003KT P6SM SCT015 OVC035=

USA.gov is the U.S. government's official web portal to all federal, state and local government web resources and services.